Time;durP1;ratioP1;P1;durP2;ratioP2;P2;SDS_P1;SDS_P2;PMS_P1;PMS_P2;Temp;Humidity;BMP_temperature;BMP_pressure;BME280_temperature;BME280_humidity;BME280_pressure;Samples;Min_cycle;Max_cycle;Signal;HPM_P1;HPM_P2
2022/05/24 00:16:03;;;;;;;5.53;3.10;;;;;;;16.66;97.88;98580.75;12240291;19;20023;-86
2022/05/24 00:20:25;;;;;;;;;;;;;;;;;;;;;
2022/05/24 00:25:01;;;;;;;4.95;3.33;;;;;;;16.57;97.93;98580.69;12223071;19;20057;-87
2022/05/24 00:29:33;;;;;;;5.30;3.63;;;;;;;16.50;98.94;98590.63;12211962;19;20066;-85
2022/05/24 00:33:35;;;;;;;5.20;3.03;;;;;;;16.49;99.26;98592.59;12183732;19;20432;-85
2022/05/24 00:42:37;;;;;;;5.80;3.05;;;;;;;16.45;98.69;98597.16;12234883;19;20024;-86
2022/05/24 00:47:13;;;;;;;5.65;3.40;;;;;;;16.44;98.64;98591.91;12218099;19;20039;-86
2022/05/24 00:51:38;;;;;;;5.90;3.10;;;;;;;16.41;99.06;98588.59;12231719;19;20422;-86
2022/05/24 00:55:49;;;;;;;8.32;4.10;;;;;;;16.37;99.04;98595.94;12200439;19;20011;-86
2022/05/24 00:59:57;;;;;;;7.78;4.00;;;;;;;16.34;99.92;98599.38;12212011;19;20089;-86
2022/05/24 01:03:59;;;;;;;4.53;3.38;;;;;;;16.34;100.00;98602.16;12184929;19;20117;-85
2022/05/24 01:13:43;;;;;;;7.22;3.78;;;;;;;16.32;99.62;98606.38;12203717;19;20035;-86
2022/05/24 01:17:51;;;;;;;4.63;3.25;;;;;;;16.34;99.31;98604.94;12208169;19;20011;-86
2022/05/24 01:21:57;;;;;;;7.75;3.15;;;;;;;16.37;98.86;98598.72;12193594;19;20007;-85
2022/05/24 01:26:23;;;;;;;4.78;3.45;;;;;;;16.36;99.04;98599.88;12211444;19;20011;-85
2022/05/24 01:30:27;;;;;;;4.75;3.42;;;;;;;16.39;99.00;98595.66;12216389;19;20028;-87
2022/05/24 01:39:00;;;;;;;6.45;3.80;;;;;;;16.26;99.68;98591.78;12216158;19;20021;-86
2022/05/24 01:43:02;;;;;;;5.72;3.20;;;;;;;16.28;99.96;98592.28;12191009;19;20029;-85
2022/05/24 01:47:04;;;;;;;5.63;3.60;;;;;;;16.26;100.00;98591.78;12210118;19;20074;-86
2022/05/24 01:51:09;;;;;;;5.68;3.80;;;;;;;16.21;100.00;98578.03;12207173;19;20011;-87
2022/05/24 01:55:19;;;;;;;7.78;3.70;;;;;;;16.20;99.98;98575.56;12187158;19;20102;-87
2022/05/24 01:59:22;;;;;;;5.28;3.60;;;;;;;16.02;100.00;98569.06;12207380;19;20003;-87
2022/05/24 02:03:24;;;;;;;5.15;3.60;;;;;;;15.90;100.00;98576.00;12220460;19;20006;-87
2022/05/24 02:07:26;;;;;;;7.50;4.10;;;;;;;15.77;100.00;98579.66;12182860;19;20018;-86
2022/05/24 02:11:30;;;;;;;5.40;3.85;;;;;;;15.68;100.00;98571.25;12206902;19;20033;-86
2022/05/24 02:15:35;;;;;;;7.50;3.97;;;;;;;15.60;100.00;98563.63;12181886;19;20010;-86
2022/05/24 02:19:44;;;;;;;6.38;4.63;;;;;;;15.52;100.00;98558.00;12203731;19;20014;-86
2022/05/24 02:23:48;;;;;;;5.72;4.05;;;;;;;15.49;100.00;98556.69;12213873;19;20021;-86
2022/05/24 02:27:51;;;;;;;6.43;4.25;;;;;;;15.46;100.00;98549.78;12180455;19;20462;-85
2022/05/24 02:31:52;;;;;;;6.28;4.07;;;;;;;15.40;100.00;98548.25;12200566;19;20128;-85
2022/05/24 02:36:03;;;;;;;7.97;4.13;;;;;;;15.37;100.00;98548.88;12204998;19;20382;-86
2022/05/24 02:44:26;;;;;;;6.75;4.55;;;;;;;15.34;100.00;98543.97;12214348;19;20074;-86
2022/05/24 02:48:28;;;;;;;7.07;4.88;;;;;;;15.33;100.00;98536.78;12212011;19;20087;-86
2022/05/24 02:52:30;;;;;;;7.55;4.20;;;;;;;15.34;100.00;98543.16;12226553;19;20070;-86
2022/05/24 02:56:32;;;;;;;8.13;4.20;;;;;;;15.35;100.00;98533.69;12221976;19;20007;-87
2022/05/24 03:00:36;;;;;;;7.32;4.70;;;;;;;15.35;100.00;98539.22;12208559;19;20011;-87
2022/05/24 03:04:37;;;;;;;8.02;3.75;;;;;;;15.37;100.00;98536.97;12224091;19;20518;-87
2022/05/24 03:17:23;;;;;;;8.87;5.13;;;;;;;15.60;100.00;98541.44;12220633;19;20101;-86
2022/05/24 03:21:25;;;;;;;8.10;5.20;;;;;;;15.67;100.00;98546.53;12215942;19;20027;-86
2022/05/24 03:25:27;;;;;;;8.35;5.25;;;;;;;15.70;100.00;98543.16;12194767;19;20029;-86
2022/05/24 03:29:28;;;;;;;8.52;5.30;;;;;;;15.74;100.00;98535.88;12207196;19;20034;-85
2022/05/24 03:33:31;;;;;;;9.95;5.95;;;;;;;15.74;100.00;98541.41;12191783;19;20007;-86
2022/05/24 03:37:35;;;;;;;8.85;5.15;;;;;;;15.77;100.00;98528.84;12213231;19;20015;-85
2022/05/24 03:41:39;;;;;;;8.82;5.60;;;;;;;15.78;100.00;98538.81;12210600;19;20011;-85
2022/05/24 03:45:41;;;;;;;6.57;4.78;;;;;;;15.76;100.00;98521.66;12198284;19;20033;-85
2022/05/24 03:49:50;;;;;;;7.97;4.63;;;;;;;15.75;100.00;98526.38;12214405;19;20090;-85
2022/05/24 03:53:52;;;;;;;6.25;4.63;;;;;;;15.75;100.00;98529.16;12212237;19;20033;-86
2022/05/24 03:58:01;;;;;;;7.90;4.65;;;;;;;15.67;100.00;98525.16;12184905;19;20101;-86
2022/05/24 04:02:04;;;;;;;6.25;4.20;;;;;;;15.80;100.00;98533.78;12206750;19;20003;-85
2022/05/24 04:06:10;;;;;;;7.40;5.10;;;;;;;15.88;100.00;98530.22;12213903;19;20006;-85
2022/05/24 04:10:49;;;;;;;7.28;4.20;;;;;;;15.93;100.00;98542.03;12190078;19;20640;-86
2022/05/24 04:15:11;;;;;;;8.80;4.25;;;;;;;15.94;100.00;98538.13;12230983;19;20015;-85
2022/05/24 04:19:12;;;;;;;7.03;4.47;;;;;;;16.06;100.00;98548.69;12184867;19;20007;-84
2022/05/24 04:23:14;;;;;;;7.45;5.28;;;;;;;16.08;100.00;98549.16;12231419;19;20035;-84
2022/05/24 04:27:16;;;;;;;8.55;5.50;;;;;;;16.03;100.00;98559.59;12218831;19;20045;-84
2022/05/24 04:31:17;;;;;;;8.02;6.38;;;;;;;16.10;100.00;98549.69;12201601;19;20078;-85
2022/05/24 04:35:19;;;;;;;10.32;5.65;;;;;;;16.13;100.00;98559.34;12209595;19;20384;-84
2022/05/24 04:39:21;;;;;;;11.00;6.28;;;;;;;16.20;100.00;98567.22;12216077;19;20033;-84
2022/05/24 04:43:22;;;;;;;11.32;5.55;;;;;;;16.34;100.00;98577.13;12189694;19;20117;-85
2022/05/24 04:47:28;;;;;;;7.60;5.07;;;;;;;16.36;100.00;98554.59;12205759;19;20006;-84
2022/05/24 04:51:29;;;;;;;9.27;5.20;;;;;;;16.41;100.00;98569.13;12196881;19;20102;-85
2022/05/24 04:55:31;;;;;;;10.10;4.40;;;;;;;16.50;100.00;98574.75;12205883;19;20010;-86
2022/05/24 05:00:13;;;;;;;5.80;4.32;;;;;;;16.59;100.00;98583.13;12221153;19;20110;-86
2022/05/24 05:04:27;;;;;;;6.38;4.28;;;;;;;16.71;100.00;98586.13;12189520;19;20467;-86
2022/05/24 05:12:53;;;;;;;5.65;4.10;;;;;;;16.64;100.00;98580.22;12188003;19;20014;-87
2022/05/24 05:16:58;;;;;;;5.32;4.05;;;;;;;16.72;100.00;98598.13;12213690;19;20018;-83
2022/05/24 05:21:00;;;;;;;5.20;3.40;;;;;;;16.74;100.00;98601.38;12206712;19;20598;-86
2022/05/24 05:25:02;;;;;;;5.10;3.30;;;;;;;16.81;100.00;98590.66;12187274;19;20010;-84
2022/05/24 05:29:04;;;;;;;4.93;3.53;;;;;;;16.96;100.00;98590.22;12205379;19;20014;-86
2022/05/24 05:33:06;;;;;;;5.90;3.13;;;;;;;17.06;100.00;98594.66;12206427;19;20475;-85
2022/05/24 05:37:08;;;;;;;4.75;3.13;;;;;;;17.03;100.00;98609.22;12180373;19;20024;-82
2022/05/24 05:41:09;;;;;;;5.45;3.05;;;;;;;16.90;100.00;98618.50;12211503;19;20034;-80
2022/05/24 05:45:12;;;;;;;5.78;2.78;;;;;;;16.94;100.00;98619.50;12209146;19;20066;-81
2022/05/24 05:49:15;;;;;;;3.72;2.38;;;;;;;16.97;100.00;98633.59;12183770;19;20341;-81
2022/05/24 05:53:19;;;;;;;6.88;2.60;;;;;;;17.12;98.72;98626.78;12201654;19;20018;-81
2022/05/24 05:57:21;;;;;;;5.60;2.97;;;;;;;16.97;99.00;98641.13;12205821;19;20046;-82
2022/05/24 06:01:31;;;;;;;4.32;2.72;;;;;;;16.82;99.22;98637.63;12187594;19;20010;-81
2022/05/24 06:05:33;;;;;;;5.18;2.70;;;;;;;16.76;100.00;98649.19;12196164;19;20032;-81
2022/05/24 06:09:34;;;;;;;5.50;2.50;;;;;;;16.61;100.00;98681.00;12182044;19;20018;-81
2022/05/24 06:13:36;;;;;;;5.63;3.28;;;;;;;16.25;100.00;98701.34;12178076;19;20548;-81
2022/05/24 06:17:43;;;;;;;3.72;2.55;;;;;;;16.00;100.00;98693.56;12196972;19;20438;-79
2022/05/24 06:21:48;;;;;;;3.88;2.20;;;;;;;16.04;100.00;98697.41;12183897;19;20051;-80
2022/05/24 06:25:51;;;;;;;3.15;2.33;;;;;;;16.12;100.00;98702.19;12208287;19;20460;-80
2022/05/24 06:29:53;;;;;;;4.00;1.90;;;;;;;16.08;100.00;98701.19;12197342;19;20006;-80
2022/05/24 06:33:55;;;;;;;3.92;1.58;;;;;;;16.17;100.00;98713.19;12175521;19;20086;-80
2022/05/24 06:37:56;;;;;;;2.83;1.60;;;;;;;16.17;100.00;98710.41;12205341;19;20038;-80
2022/05/24 06:41:58;;;;;;;5.55;1.38;;;;;;;16.22;100.00;98724.19;12199810;19;20033;-81
2022/05/24 06:46:10;;;;;;;3.63;1.30;;;;;;;16.31;100.00;98741.78;12184469;19;20098;-81
2022/05/24 06:50:13;;;;;;;3.65;1.50;;;;;;;16.27;100.00;98764.94;12203065;19;20486;-81
2022/05/24 06:54:15;;;;;;;4.63;1.08;;;;;;;16.16;100.00;98775.47;12196833;19;20014;-81
2022/05/24 06:58:17;;;;;;;8.32;2.05;;;;;;;16.16;100.00;98798.53;12185362;19;20073;-80
2022/05/24 07:02:25;;;;;;;5.95;1.88;;;;;;;16.30;100.00;98803.22;12204652;19;20078;-80
2022/05/24 07:06:27;;;;;;;2.47;0.98;;;;;;;16.47;99.24;98802.56;12206198;19;20026;-80
2022/05/24 07:10:31;;;;;;;1.88;0.85;;;;;;;16.57;98.39;98805.97;12177983;19;20022;-80
2022/05/24 07:14:33;;;;;;;1.60;0.90;;;;;;;16.70;98.05;98811.78;12203245;19;20011;-87
2022/05/24 07:18:37;;;;;;;1.27;0.70;;;;;;;16.76;97.41;98805.81;12177482;19;20095;-85
2022/05/24 07:22:39;;;;;;;2.60;0.80;;;;;;;16.65;95.91;98826.63;12209296;19;20502;-84
2022/05/24 07:26:43;;;;;;;4.43;0.70;;;;;;;16.60;96.90;98816.44;12214234;19;20010;-83
2022/05/24 07:30:54;;;;;;;0.80;0.63;;;;;;;16.91;95.98;98824.09;12192728;19;20011;-84
2022/05/24 07:34:59;;;;;;;1.02;0.70;;;;;;;17.06;95.15;98842.38;12217314;19;20472;-82
2022/05/24 07:39:00;;;;;;;0.60;0.60;;;;;;;17.29;94.58;98855.13;12217938;19;20504;-82
2022/05/24 07:47:23;;;;;;;0.57;0.57;;;;;;;17.38;92.46;98843.25;12211064;19;20007;-82
2022/05/24 07:51:27;;;;;;;1.15;0.70;;;;;;;17.07;94.05;98839.28;12230835;19;20035;-82
2022/05/24 07:55:29;;;;;;;1.20;0.68;;;;;;;16.93;95.80;98846.88;12192267;19;20421;-82
2022/05/24 07:59:34;;;;;;;1.52;0.68;;;;;;;17.03;95.91;98852.16;12214364;19;20007;-81
2022/05/24 08:03:38;;;;;;;1.48;0.90;;;;;;;17.09;95.48;98864.00;12184256;19;20435;-81
2022/05/24 08:07:40;;;;;;;4.65;1.30;;;;;;;17.02;94.45;98858.06;12208224;19;20014;-82
2022/05/24 08:11:42;;;;;;;1.35;0.95;;;;;;;16.62;91.93;98872.56;12208828;19;20435;-81
2022/05/24 08:15:44;;;;;;;11.88;2.45;;;;;;;16.39;92.80;98882.81;12175553;19;20007;-83
2022/05/24 08:19:46;;;;;;;3.50;1.00;;;;;;;16.46;91.60;98895.47;12211038;19;20017;-85
2022/05/24 08:23:48;;;;;;;3.25;1.27;;;;;;;17.00;90.03;98890.94;12214664;19;20655;-84
2022/05/24 08:27:50;;;;;;;2.30;0.90;;;;;;;17.20;88.94;98893.25;12196697;19;20381;-84
2022/05/24 08:31:51;;;;;;;1.95;0.60;;;;;;;17.14;86.58;98891.72;12220339;19;20010;-82
2022/05/24 08:35:54;;;;;;;0.87;0.50;;;;;;;16.95;83.28;98913.31;12218037;19;20006;-85
2022/05/24 08:39:59;;;;;;;1.15;0.57;;;;;;;17.23;80.23;98900.97;12194531;19;20007;-86
2022/05/24 08:48:54;;;;;;;1.42;0.95;;;;;;;18.20;76.28;98917.09;12195206;19;20507;-87
2022/05/24 08:53:10;;;;;;;1.13;0.75;;;;;;;18.55;74.55;98926.41;12214975;19;20028;-88
2022/05/24 08:57:18;;;;;;;2.70;0.60;;;;;;;18.77;71.26;98930.25;12213905;19;20376;-84
2022/05/24 09:01:29;;;;;;;1.73;0.70;;;;;;;18.88;68.28;98923.22;12194709;19;20582;-85
2022/05/24 09:05:39;;;;;;;1.00;0.55;;;;;;;19.32;68.93;98926.84;12210677;19;20050;-83
2022/05/24 09:10:06;;;;;;;0.68;0.50;;;;;;;19.50;62.81;98922.88;12198608;19;20406;-85
2022/05/24 09:14:11;;;;;;;0.85;0.57;;;;;;;19.27;64.10;98927.00;12214424;19;20344;-82
2022/05/24 09:18:36;;;;;;;1.65;0.50;;;;;;;19.10;63.83;98934.25;12208810;19;20447;-84
2022/05/24 09:22:38;;;;;;;1.50;0.43;;;;;;;19.49;62.30;98938.00;12187984;19;20029;-84
2022/05/24 09:27:10;;;;;;;3.72;0.52;;;;;;;20.08;58.72;98951.41;12210996;19;20006;-85
2022/05/24 09:31:42;;;;;;;2.17;0.40;;;;;;;19.92;56.69;98944.69;12194155;19;20010;-85
2022/05/24 09:35:45;;;;;;;1.55;0.47;;;;;;;19.77;58.46;98941.28;12215097;19;20534;-83
2022/05/24 09:40:24;;;;;;;1.80;0.60;;;;;;;19.89;56.86;98953.75;12190192;19;20010;-84
2022/05/24 09:44:28;;;;;;;0.63;0.32;;;;;;;19.86;55.81;98949.63;12209780;19;20091;-83
2022/05/24 09:48:33;;;;;;;4.38;0.50;;;;;;;20.12;54.11;98938.38;12188565;19;20014;-83
2022/05/24 09:52:35;;;;;;;4.10;0.77;;;;;;;19.96;53.63;98954.91;12212418;19;20086;-84
2022/05/24 09:56:36;;;;;;;2.17;0.52;;;;;;;19.85;55.09;98961.16;12202353;19;20011;-84
2022/05/24 10:00:52;;;;;;;1.48;0.30;;;;;;;20.18;53.77;98969.78;12191705;19;20523;-82
2022/05/24 10:04:54;;;;;;;1.55;0.40;;;;;;;20.02;53.26;98958.34;12209972;19;20372;-82
2022/05/24 10:09:27;;;;;;;2.55;0.50;;;;;;;19.72;52.83;98957.38;12213990;19;20334;-82
2022/05/24 10:13:58;;;;;;;0.70;0.30;;;;;;;20.23;53.16;98945.25;12182365;19;20117;-81
2022/05/24 10:18:14;;;;;;;0.43;0.30;;;;;;;20.70;50.98;98958.38;12206366;19;20066;-83
2022/05/24 10:22:40;;;;;;;0.70;0.45;;;;;;;20.73;50.81;98968.09;12181875;19;20027;-82
2022/05/24 10:26:56;;;;;;;0.75;0.40;;;;;;;20.51;50.86;98966.38;12208171;19;20003;-82
2022/05/24 10:31:05;;;;;;;0.30;0.30;;;;;;;20.57;49.16;98973.44;12184147;19;20006;-81
2022/05/24 10:40:00;;;;;;;0.30;0.30;;;;;;;19.92;49.18;98969.84;12186681;19;20087;-79
2022/05/24 10:44:05;;;;;;;3.05;0.90;;;;;;;20.09;49.10;98974.59;12210390;19;20017;-81
2022/05/24 10:48:11;;;;;;;1.58;0.47;;;;;;;20.28;49.48;98969.41;12199524;19;20078;-82
2022/05/24 10:52:25;;;;;;;2.75;0.60;;;;;;;20.87;48.01;98972.28;12187568;19;20025;-83
2022/05/24 10:56:50;;;;;;;2.28;0.50;;;;;;;21.89;44.60;98974.94;12202506;19;21053;-82
2022/05/24 11:01:08;;;;;;;0.60;0.47;;;;;;;22.60;43.52;98962.59;12182162;19;20015;-81
2022/05/24 11:05:23;;;;;;;1.20;0.50;;;;;;;21.76;45.81;98983.31;12209824;19;20010;-80
2022/05/24 11:09:28;;;;;;;2.83;0.60;;;;;;;21.36;44.83;98981.06;12217756;19;20023;-80
2022/05/24 11:13:56;;;;;;;3.30;0.63;;;;;;;21.28;43.03;98983.88;12200140;19;20011;-85
2022/05/24 11:18:02;;;;;;;3.15;0.50;;;;;;;21.63;42.48;98994.84;12215836;19;20023;-81
2022/05/24 11:22:16;;;;;;;1.00;0.40;;;;;;;21.72;42.95;98984.38;12192504;19;20025;-81
2022/05/24 11:26:27;;;;;;;3.40;0.50;;;;;;;21.87;43.22;98985.72;12205805;19;20352;-83
2022/05/24 11:30:38;;;;;;;1.27;0.57;;;;;;;22.10;42.46;98969.28;12204985;19;20011;-82
2022/05/24 11:34:55;;;;;;;1.35;0.63;;;;;;;21.78;41.68;98974.59;12218933;19;20094;-82
2022/05/24 11:39:07;;;;;;;8.70;1.20;;;;;;;21.58;41.74;98976.25;12218693;19;19999;-81
2022/05/24 11:43:34;;;;;;;0.77;0.43;;;;;;;21.67;41.67;98967.75;12197159;19;20028;-81
2022/05/24 11:47:39;;;;;;;2.38;0.60;;;;;;;21.96;42.14;98989.25;12215120;19;20015;-81
2022/05/24 11:51:45;;;;;;;4.00;0.52;;;;;;;22.38;41.87;98975.94;12199647;19;20020;-82
2022/05/24 11:55:55;;;;;;;1.58;0.50;;;;;;;22.70;41.62;98977.00;12215322;19;20025;-82
2022/05/24 11:59:56;;;;;;;6.13;0.50;;;;;;;22.71;42.02;98984.25;12215977;19;20026;-82
2022/05/24 12:08:26;;;;;;;1.85;0.60;;;;;;;23.19;38.53;98990.22;12218917;19;20030;-83
2022/05/24 12:12:34;;;;;;;1.23;0.70;;;;;;;23.14;38.82;98996.91;12217229;19;20023;-81
2022/05/24 12:16:56;;;;;;;6.30;1.02;;;;;;;22.57;40.01;98992.19;12207083;19;20011;-81
2022/05/24 12:20:59;;;;;;;1.45;0.60;;;;;;;23.87;38.50;98983.81;12217557;19;20007;-83
2022/05/24 12:25:05;;;;;;;9.05;1.17;;;;;;;24.78;33.99;99016.84;12193462;19;20013;-83
2022/05/24 12:29:11;;;;;;;0.47;0.40;;;;;;;24.87;32.66;99009.00;12212553;19;20002;-82
2022/05/24 12:33:38;;;;;;;2.80;0.52;;;;;;;25.74;33.22;99018.28;12211163;19;20003;-83
2022/05/24 12:37:54;;;;;;;0.65;0.32;;;;;;;26.81;32.48;99006.22;12186147;19;20042;-84
2022/05/24 12:41:58;;;;;;;0.70;0.40;;;;;;;27.74;30.87;99009.63;12214060;19;20006;-83
2022/05/24 12:46:00;;;;;;;3.22;0.68;;;;;;;28.11;31.14;99008.88;12189298;19;20074;-82
2022/05/24 12:50:02;;;;;;;1.23;0.43;;;;;;;27.46;28.92;99016.56;12219560;19;20033;-81
2022/05/24 12:54:08;;;;;;;;;;;;;;;27.90;29.01;99012.28;12222534;19;20045;-84
2022/05/24 12:58:41;;;;;;;2.78;0.70;;;;;;;28.34;28.81;99006.72;12195570;19;19931;-79
2022/05/24 13:02:46;;;;;;;4.30;0.70;;;;;;;28.74;28.26;99016.47;12203997;19;20074;-85
2022/05/24 13:07:18;;;;;;;1.85;0.52;;;;;;;29.48;26.57;99015.41;12186253;19;20356;-83
2022/05/24 13:11:21;;;;;;;1.45;0.50;;;;;;;29.76;26.79;99013.94;12213372;19;20003;-83
2022/05/24 13:15:40;;;;;;;1.42;0.43;;;;;;;30.39;25.58;99023.94;12203161;19;20086;-82
2022/05/24 13:19:53;;;;;;;5.70;1.15;;;;;;;30.88;25.86;99016.72;12187806;19;20078;-86
2022/05/24 13:24:16;;;;;;;2.70;0.43;;;;;;;29.50;27.04;99012.16;12178042;19;22860;-83
2022/05/24 13:28:45;;;;;;;6.32;1.20;;;;;;;28.45;27.62;99011.72;12189302;19;20013;-82
2022/05/24 13:37:11;;;;;;;1.52;0.70;;;;;;;29.90;25.92;99001.84;12184518;19;20034;-82
2022/05/24 13:41:26;;;;;;;5.82;1.08;;;;;;;29.28;25.83;99009.19;12211496;19;20031;-81
2022/05/24 13:45:28;;;;;;;1.75;0.50;;;;;;;28.63;27.27;99013.50;12212270;19;20090;-80
2022/05/24 13:49:30;;;;;;;;;;;;;;;28.25;26.31;99014.72;12216975;19;20010;-78
2022/05/24 13:53:39;;;;;;;0.83;0.40;;;;;;;29.18;26.38;99006.28;12213081;19;19939;-82
2022/05/24 13:58:01;;;;;;;1.17;0.63;;;;;;;31.30;24.45;99002.88;12189076;19;20033;-81
2022/05/24 14:02:14;;;;;;;1.67;0.65;;;;;;;31.95;21.78;99006.38;12217860;19;20549;-84
2022/05/24 14:06:21;;;;;;;1.55;0.60;;;;;;;31.76;22.29;99013.31;12219372;19;20023;-83
2022/05/24 14:10:22;;;;;;;4.00;0.57;;;;;;;31.22;24.15;99007.75;12190483;19;20010;-83
2022/05/24 14:14:26;;;;;;;0.90;0.50;;;;;;;31.69;23.57;99019.06;12215617;19;20015;-83
2022/05/24 14:18:29;;;;;;;1.00;0.60;;;;;;;32.57;21.55;99008.50;12204531;19;20017;-82
2022/05/24 14:22:32;;;;;;;1.95;0.60;;;;;;;33.94;20.81;99014.53;12216898;19;20035;-79
2022/05/24 14:26:34;;;;;;;0.43;0.40;;;;;;;33.45;21.10;99019.56;12212428;19;20018;-80
2022/05/24 14:30:38;;;;;;;1.40;0.45;;;;;;;31.52;22.29;99026.41;12184294;19;20027;-79
2022/05/24 14:34:40;;;;;;;1.60;0.43;;;;;;;29.82;24.30;99034.25;12204015;19;20024;-83
2022/05/24 14:38:44;;;;;;;0.98;0.55;;;;;;;28.06;26.08;99024.22;12197047;19;20495;-82
2022/05/24 14:42:48;;;;;;;3.00;0.60;;;;;;;26.82;27.70;99021.97;12196581;19;20070;-82
2022/05/24 14:46:50;;;;;;;0.52;0.43;;;;;;;26.34;28.15;99021.50;12215570;19;20011;-82
2022/05/24 14:50:52;;;;;;;1.55;0.60;;;;;;;26.28;28.63;99014.53;12225111;19;20455;-81
2022/05/24 14:54:54;;;;;;;3.10;0.57;;;;;;;26.19;28.60;99030.09;12186989;19;20021;-82
2022/05/24 14:58:55;;;;;;;1.02;0.40;;;;;;;27.20;26.65;99027.88;12215627;19;20074;-81
2022/05/24 15:02:57;;;;;;;1.00;0.50;;;;;;;27.61;26.22;99031.72;12222753;19;20022;-82
2022/05/24 15:15:20;;;;;;;1.15;0.40;;;;;;;28.80;25.09;99037.56;12186939;19;20007;-82
2022/05/24 15:15:45;;;;;;;0.68;0.40;;;;;;;26.01;27.53;99055.97;12196360;19;20010;-85
2022/05/24 15:19:47;;;;;;;0.93;0.40;;;;;;;24.89;28.98;99045.28;12223273;19;20018;-82
2022/05/24 15:23:56;;;;;;;1.33;0.52;;;;;;;24.01;30.72;99045.31;12225518;19;20011;-82
2022/05/24 15:28:00;;;;;;;1.25;0.40;;;;;;;23.45;31.38;99042.41;12191760;19;20396;-85
2022/05/24 15:32:03;;;;;;;4.57;0.60;;;;;;;23.01;32.36;99054.28;12220949;19;20408;-84
2022/05/24 15:36:06;;;;;;;2.20;0.50;;;;;;;22.71;32.93;99051.66;12217010;19;20341;-84
2022/05/24 15:40:08;;;;;;;3.92;0.50;;;;;;;22.57;32.77;99051.16;12196707;19;20739;-85
2022/05/24 15:44:10;;;;;;;1.75;0.50;;;;;;;22.81;32.02;99061.59;12217258;19;20014;-83
2022/05/24 15:48:12;;;;;;;3.90;0.60;;;;;;;22.67;32.29;99061.13;12218542;19;20011;-84
2022/05/24 15:52:13;;;;;;;0.57;0.37;;;;;;;22.24;32.70;99071.66;12198763;19;20276;-83
2022/05/24 15:56:16;;;;;;;1.77;0.45;;;;;;;21.92;33.42;99078.88;12217202;19;20764;-85
2022/05/24 16:00:19;;;;;;;1.60;0.45;;;;;;;21.42;34.28;99092.94;12221594;19;20020;-84
2022/05/24 16:13:06;;;;;;;1.13;0.47;;;;;;;20.31;36.29;99094.63;12197359;19;20062;-83
2022/05/24 16:17:14;;;;;;;0.52;0.32;;;;;;;20.38;36.20;99099.75;12205361;19;20069;-83
2022/05/24 16:21:17;;;;;;;0.82;0.50;;;;;;;20.39;36.62;99112.56;12216621;19;20007;-83
2022/05/24 16:25:19;;;;;;;1.42;0.50;;;;;;;20.20;37.56;99107.34;12203219;19;20102;-82
2022/05/24 16:29:22;;;;;;;2.00;0.50;;;;;;;20.16;37.21;99106.34;12203435;19;20387;-84
2022/05/24 16:33:25;;;;;;;1.80;0.50;;;;;;;20.24;37.21;99108.31;12215998;19;20011;-82
2022/05/24 16:37:48;;;;;;;2.65;0.60;;;;;;;20.24;37.78;99111.13;12189219;19;20017;-82
2022/05/24 16:41:49;;;;;;;0.88;0.38;;;;;;;20.24;37.41;99119.50;12210078;19;20034;-82
2022/05/24 16:45:51;;;;;;;0.45;0.40;;;;;;;20.07;38.16;99114.75;12189936;19;20591;-81
2022/05/24 16:49:53;;;;;;;1.35;0.70;;;;;;;19.94;38.43;99124.13;12209897;19;20002;-84
2022/05/24 16:53:54;;;;;;;1.65;0.52;;;;;;;19.82;38.48;99112.78;12211036;19;20030;-84
2022/05/24 17:02:16;;;;;;;0.88;0.63;;;;;;;19.98;39.39;99114.75;12206584;19;20011;-82
2022/05/24 17:06:20;;;;;;;1.48;0.70;;;;;;;20.06;38.97;99121.50;12211887;19;20486;-82
2022/05/24 17:10:23;;;;;;;2.55;0.50;;;;;;;19.95;39.83;99122.97;12192766;19;20014;-82
2022/05/24 17:14:34;;;;;;;2.13;0.75;;;;;;;19.75;40.01;99130.88;12200757;19;20049;-84
2022/05/24 17:18:36;;;;;;;2.50;0.90;;;;;;;19.63;40.05;99127.03;12188228;19;20045;-82
2022/05/24 17:22:39;;;;;;;3.00;0.80;;;;;;;19.53;40.31;99131.78;12210372;19;20467;-83
2022/05/24 17:26:41;;;;;;;2.13;0.55;;;;;;;19.32;40.99;99145.53;12209628;19;20011;-82
2022/05/24 17:30:46;;;;;;;;;;;;;;;19.26;41.24;99146.03;12191935;19;20033;-86
2022/05/24 17:34:48;;;;;;;2.38;0.77;;;;;;;19.39;40.34;99149.84;12207611;19;19922;-81
2022/05/24 17:38:52;;;;;;;2.30;0.80;;;;;;;19.33;40.60;99146.34;12206789;19;20014;-82
2022/05/24 17:42:54;;;;;;;3.95;0.60;;;;;;;19.28;41.27;99166.09;12189313;19;21603;-84
2022/05/24 17:46:56;;;;;;;2.43;0.50;;;;;;;19.16;42.54;99166.69;12218399;19;20006;-82
2022/05/24 17:50:59;;;;;;;2.05;0.40;;;;;;;19.11;42.76;99175.22;12212033;19;20007;-80
2022/05/24 17:55:01;;;;;;;0.77;0.40;;;;;;;19.08;43.48;99168.28;12187846;19;20753;-83
2022/05/24 17:59:03;;;;;;;1.33;0.57;;;;;;;19.09;43.98;99169.09;12211617;19;20858;-80
2022/05/24 18:03:06;;;;;;;2.60;0.60;;;;;;;19.01;44.40;99178.28;12211864;19;20010;-80
2022/05/24 18:07:08;;;;;;;2.10;1.13;;;;;;;18.96;44.50;99179.25;12182956;19;20014;-82
2022/05/24 18:11:09;;;;;;;4.47;0.75;;;;;;;18.81;44.79;99190.81;12209205;19;20002;-80
2022/05/24 18:15:14;;;;;;;1.58;0.70;;;;;;;18.62;44.89;99189.03;12210340;19;20084;-82
2022/05/24 18:19:15;;;;;;;2.22;0.77;;;;;;;18.42;45.61;99201.53;12183393;19;20074;-81
2022/05/24 18:23:23;;;;;;;2.20;0.50;;;;;;;18.21;46.25;99201.22;12215307;19;20007;-80
2022/05/24 18:36:24;;;;;;;2.30;0.50;;;;;;;17.64;47.93;99208.31;12203334;19;20020;-80
2022/05/24 18:40:26;;;;;;;1.13;0.73;;;;;;;17.44;48.48;99220.72;12187977;19;20010;-80
2022/05/24 18:44:28;;;;;;;1.60;0.80;;;;;;;17.31;49.00;99223.22;12210093;19;20007;-80
2022/05/24 18:48:30;;;;;;;4.03;0.80;;;;;;;17.19;49.34;99222.91;12191029;19;20091;-80
2022/05/24 18:52:32;;;;;;;1.38;0.73;;;;;;;17.02;49.94;99214.31;12208120;19;20006;-82
2022/05/24 18:56:34;;;;;;;1.55;0.68;;;;;;;16.90;50.96;99228.72;12209312;19;20531;-85
2022/05/24 19:00:36;;;;;;;1.10;0.55;;;;;;;16.80;51.85;99240.00;12187757;19;20010;-80
2022/05/24 19:04:38;;;;;;;2.33;0.77;;;;;;;16.67;52.88;99238.00;12206189;19;20098;-81
2022/05/24 19:08:40;;;;;;;1.98;1.00;;;;;;;16.52;54.32;99236.31;12213477;19;20007;-80
2022/05/24 19:12:42;;;;;;;2.93;0.77;;;;;;;16.36;55.64;99247.66;12186143;19;20010;-81
2022/05/24 19:16:43;;;;;;;3.50;0.77;;;;;;;16.15;57.17;99258.28;12209634;19;20006;-81
2022/05/24 19:20:45;;;;;;;2.45;0.77;;;;;;;15.94;58.94;99266.06;12213087;19;20070;-81
2022/05/24 19:24:49;;;;;;;2.15;0.65;;;;;;;15.71;60.08;99269.72;12176406;19;20007;-83
2022/05/24 19:28:51;;;;;;;1.38;0.90;;;;;;;15.52;60.60;99277.13;12207305;19;20024;-81
2022/05/24 19:32:53;;;;;;;1.35;0.80;;;;;;;15.34;62.16;99281.47;12225955;19;20011;-80
2022/05/24 19:36:54;;;;;;;3.17;1.10;;;;;;;15.18;63.67;99278.06;12197306;19;20078;-80
2022/05/24 19:45:17;;;;;;;1.23;0.77;;;;;;;14.89;65.08;99281.66;12216664;19;20003;-80
2022/05/24 19:49:18;;;;;;;4.60;1.00;;;;;;;14.76;64.97;99287.88;12196796;19;20010;-82
2022/05/24 19:53:20;;;;;;;2.57;1.00;;;;;;;14.62;65.62;99297.97;12219580;19;20106;-82
2022/05/24 19:57:22;;;;;;;2.53;0.80;;;;;;;14.49;65.76;99299.44;12211313;19;20029;-78
2022/05/24 20:01:24;;;;;;;2.90;1.10;;;;;;;14.36;66.63;99306.44;12192473;19;20032;-79
2022/05/24 20:05:27;;;;;;;1.48;0.90;;;;;;;14.22;67.70;99305.41;12217607;19;20006;-79
2022/05/24 20:09:29;;;;;;;3.25;0.82;;;;;;;14.10;69.05;99325.16;12211426;19;20019;-78
2022/05/24 20:13:31;;;;;;;1.88;0.80;;;;;;;13.99;69.16;99324.38;12222742;19;20010;-79
2022/05/24 20:17:32;;;;;;;1.95;1.08;;;;;;;13.89;69.41;99329.94;12224707;19;20047;-81
2022/05/24 20:21:34;;;;;;;5.47;0.98;;;;;;;13.81;70.33;99339.69;12210762;19;20038;-85
2022/05/24 20:25:36;;;;;;;2.03;0.82;;;;;;;13.73;70.32;99347.75;12234245;19;20043;-83
2022/05/24 20:29:39;;;;;;;2.15;0.88;;;;;;;13.66;70.90;99346.09;12226412;19;20070;-80
2022/05/24 20:33:41;;;;;;;;;;;;;;;13.58;71.11;99348.63;12194536;19;20502;-81
2022/05/24 20:37:43;;;;;;;4.97;2.22;;;;;;;13.52;70.74;99345.03;12226100;19;19937;-81
2022/05/24 20:41:44;;;;;;;2.80;1.08;;;;;;;13.47;71.30;99352.50;12226668;19;20085;-81
2022/05/24 20:45:46;;;;;;;3.83;1.30;;;;;;;13.41;71.25;99360.84;12204009;19;20335;-83